Corinne, UT

2:16 AM MST on February 10, 2016 (GMT -0700)
MesoWest | | Change Station
CLOSE
Current Station
Personal Weather Station
Location: Corinne, UT
Elevation: 4211 ft
Nearby Weather Stations

Elev 4211 ft 41.30 °N, 112.27 °W | Updated 31 minutes ago

Partly Cloudy
Partly Cloudy
24 °F
Feels Like 24 °F
N
2
Wind Variable Wind from NNW
Gusts 4.0 mph

Today
High -- | Low -- °F
--% Chance of Precip.
Yesterday
High -- | Low -- °F
Precip. -- in
Pressure 30.49 in
Visibility 1.2 miles
Clouds Mostly Cloudy 100 ft
Mostly Cloudy 600 ft
Mostly Cloudy 1700 ft
Windchill 24 °F
Dew Point 21 °F
Humidity 88%
Rainfall in
Snow Depth Not available.
7:31 AM 5:57 PM
Waxing Crescent, 4% visible
METAR KBMC 100855Z AUTO 00000KT 1 1/4SM BKN001 BKN006 BKN017 M11/M13 A3049 RMK AO1 T11121132
Pressure 30.49 in
Visibility 1.2 miles
Clouds Mostly Cloudy 100 ft
Mostly Cloudy 600 ft
Mostly Cloudy 1700 ft
Windchill 24 °F
Dew Point 21 °F
Humidity 88%
Rainfall in
Snow Depth Not available.
7:31 AM 5:57 PM
Waxing Crescent, 4% visible
METAR KBMC 100855Z AUTO 00000KT 1 1/4SM BKN001 BKN006 BKN017 M11/M13 A3049 RMK AO1 T11121132

10-Day Weather Forecast

Almanac

Astronomy

Feb. 10, 2016 Rise Set
Actual Time
Civil Twilight
Nautical Twilight
Astronomical Twilight
Moon
Length of Visible Light
Length of Day
Tomorrow will be .
, % of the Moon is Illuminated

Today's Extremes

State Highs State Lows

Community

WunderPhotos

Upload Photos

1,891,826 photos uploaded!

WunderBlog® & News

Nearby

Air Quality

  Air Quality AQ Index Pollutant
Not available.

Snow Depth

Station Depth Elevation

Earthquake Activity

City Distance Mag. Time & Date
Minimum magnitude displayed is 2.5.

Coastal Water Temperatures

Place Temperature

Stations

Nearby Weather Stations

Station Location Temp. Windchill Dew Point Humidity Wind Precip. Elev Updated Type
                   

Watches & Warnings

There are currently no watches in effect.